地図

経路データ

SID SEASON NUMBER BASIN SUBBASIN NAME ISO_TIME NATURE LAT LON WMO_WIND WMO_PRES WMO_AGENCY TRACK_TYPE DIST2LAND LANDFALL IFLAG USA_AGENCY USA_ATCF_ID USA_LAT USA_LON USA_RECORD USA_STATUS USA_WIND USA_PRES USA_SSHS USA_R34_NE USA_R34_SE USA_R34_SW USA_R34_NW USA_R50_NE USA_R50_SE USA_R50_SW USA_R50_NW USA_R64_NE USA_R64_SE USA_R64_SW USA_R64_NW USA_POCI USA_ROCI USA_RMW USA_EYE TOKYO_LAT TOKYO_LON TOKYO_GRADE TOKYO_WIND TOKYO_PRES TOKYO_R50_DIR TOKYO_R50_LONG TOKYO_R50_SHORT TOKYO_R30_DIR TOKYO_R30_LONG TOKYO_R30_SHORT TOKYO_LAND CMA_LAT CMA_LON CMA_CAT CMA_WIND CMA_PRES HKO_LAT HKO_LON HKO_CAT HKO_WIND HKO_PRES NEWDELHI_LAT NEWDELHI_LON NEWDELHI_GRADE NEWDELHI_WIND NEWDELHI_PRES NEWDELHI_CI NEWDELHI_DP NEWDELHI_POCI REUNION_LAT REUNION_LON REUNION_TYPE REUNION_WIND REUNION_PRES REUNION_TNUM REUNION_CI REUNION_RMW REUNION_R34_NE REUNION_R34_SE REUNION_R34_SW REUNION_R34_NW REUNION_R50_NE REUNION_R50_SE REUNION_R50_SW REUNION_R50_NW REUNION_R64_NE REUNION_R64_SE REUNION_R64_SW REUNION_R64_NW BOM_LAT BOM_LON BOM_TYPE BOM_WIND BOM_PRES BOM_TNUM BOM_CI BOM_RMW BOM_R34_NE BOM_R34_SE BOM_R34_SW BOM_R34_NW BOM_R50_NE BOM_R50_SE BOM_R50_SW BOM_R50_NW BOM_R64_NE BOM_R64_SE BOM_R64_SW BOM_R64_NW BOM_ROCI BOM_POCI BOM_EYE BOM_POS_METHOD BOM_PRES_METHOD NADI_LAT NADI_LON NADI_CAT NADI_WIND NADI_PRES WELLINGTON_LAT WELLINGTON_LON WELLINGTON_WIND WELLINGTON_PRES DS824_LAT DS824_LON DS824_STAGE DS824_WIND DS824_PRES TD9636_LAT TD9636_LON TD9636_STAGE TD9636_WIND TD9636_PRES TD9635_LAT TD9635_LON TD9635_WIND TD9635_PRES TD9635_ROCI NEUMANN_LAT NEUMANN_LON NEUMANN_CLASS NEUMANN_WIND NEUMANN_PRES MLC_LAT MLC_LON MLC_CLASS MLC_WIND MLC_PRES USA_GUST BOM_GUST BOM_GUST_PER REUNION_GUST REUNION_GUST_PER USA_SEAHGT USA_SEARAD_NE USA_SEARAD_SE USA_SEARAD_SW USA_SEARAD_NW STORM_SPEED STORM_DIR
1971293S09086 1972 140 SI MM RHODA 1971-10-20 00:00:00 TS -8.50000 86.1000 main 1608 1608 O________OO_O_ jtwc_sh SH021972 -8.50000 86.1000 -1 -8.50000 86.1000 TC 15 1008 -8.50000 86.1000 1 -8.50000 86.1000 TC 15 1008 4 271
1971293S09086 1972 140 SI MM RHODA 1971-10-20 03:00:00 TS -8.49639 85.9054 main 1627 1627 P________PP_P_ SH021972 -8.49002 85.9075 -1 -8.49002 85.9075 TC 15 1007 -8.52187 85.8969 1 -8.49002 85.9075 TC 15 1007 4 269
1971293S09086 1972 140 SI MM RHODA 1971-10-20 06:00:00 TS -8.50899 85.6970 main 1647 1647 O________OP_O_ jtwc_sh SH021972 -8.50000 85.7000 -1 -8.50000 85.7000 TC 15 1007 -8.54496 85.6850 1 -8.50000 85.7000 TC 15 1007 4 263
1971293S09086 1972 140 SI MM RHODA 1971-10-20 09:00:00 TS -8.54810 85.4631 main 1666 1666 P________PP_P_ SH021972 -8.54248 85.4650 -1 -8.54248 85.4650 TC 15 1006 -8.57058 85.4556 1 -8.54248 85.4650 TC 15 1006 5 259
1971293S09086 1972 140 SI MM RHODA 1971-10-20 12:00:00 TS -8.60000 85.2000 main 1700 1693 O________OO_O_ jtwc_sh SH021972 -8.60000 85.2000 -1 -8.60000 85.2000 TC 15 1006 -8.60000 85.2000 1 -8.60000 85.2000 TC 15 1006 6 260
1971293S09086 1972 140 SI MM RHODA 1971-10-20 15:00:00 TS -8.64696 84.9030 main 1693 1693 P________PP_P_ SH021972 -8.65001 84.9000 -1 -8.65001 84.9000 TC 17 1005 -8.63478 84.9150 1 -8.65001 84.9000 TC 17 1005 6 261
1971293S09086 1972 140 SI MM RHODA 1971-10-20 18:00:00 TS -8.69553 84.6040 main 1695 1686 O________OP_O_ jtwc_sh SH021972 -8.70000 84.6000 -1 -8.70000 84.6000 TC 20 1005 -8.67764 84.6200 1 -8.70000 84.6000 TC 20 1005 6 261
1971293S09086 1972 140 SI MM RHODA 1971-10-20 21:00:00 TS -8.74033 84.3270 main 1686 1686 P________PP_P_ SH021972 -8.74249 84.3275 -1 -8.74250 84.3200 TC 20 1004 -8.73166 84.3400 1 -8.74250 84.3200 TC 20 1004 5 258
1971293S09086 1972 140 SI MM RHODA 1971-10-21 00:00:00 TS -8.80000 84.1000 main 1692 1689 O________OO_O_ jtwc_sh SH021972 -8.80000 84.1000 -1 -8.80000 84.1000 TC 20 1004 -8.80000 84.1000 1 -8.80000 84.1000 TC 20 1004 4 248
1971293S09086 1972 140 SI MM RHODA 1971-10-21 03:00:00 TS -8.88783 83.9522 main 1700 1698 P________PP_P_ SH021972 -8.89248 83.9275 -1 -8.89246 83.9850 TC 22 1003 -8.86925 83.9359 1 -8.89246 83.9850 TC 22 1003 3 233
1971293S09086 1972 140 SI MM RHODA 1971-10-21 06:00:00 TS -8.99097 83.8425 main 1706 1706 O________OP_O_ jtwc_sh SH021972 -9.00000 83.8000 -1 -9.00000 83.9000 TC 25 1003 -8.95484 83.8124 1 -9.00000 83.9000 TC 25 1003 3 229
1971293S09086 1972 140 SI MM RHODA 1971-10-21 09:00:00 TS -9.08360 83.7245 main 1715 1715 P________PP_P_ SH021972 -9.09248 83.7000 -1 -9.08500 83.7575 TC 25 1002 -9.06302 83.7077 1 -9.08500 83.7575 TC 25 1002 3 229
1971293S09086 1972 140 SI MM RHODA 1971-10-21 12:00:00 TS -9.20000 83.6000 main 1724 1724 O________OO_O_ jtwc_sh SH021972 -9.20000 83.6000 -1 -9.20000 83.6000 TC 25 1002 -9.20000 83.6000 1 -9.20000 83.6000 TC 25 1002 4 225
1971293S09086 1972 140 SI MM RHODA 1971-10-21 15:00:00 TS -9.35438 83.4504 main 1744 1742 P________PP_P_ SH021972 -9.32750 83.4575 -1 -9.38499 83.4500 TC 27 1001 -9.34693 83.4369 1 -9.38499 83.4500 TC 25 1001 5 221
1971293S09086 1972 140 SI MM RHODA 1971-10-21 18:00:00 TS -9.54502 83.2940 main 1751 1751 O________OP_O_ jtwc_sh SH021972 -9.50000 83.3000 -1 -9.60000 83.3000 TC 30 1001 -9.52508 83.2701 1 -9.60000 83.3000 TC 25 1001 5 218
1971293S09086 1972 140 SI MM RHODA 1971-10-21 21:00:00 TS -9.75014 83.1346 main 1780 1780 P________PP_P_ SH021972 -9.72000 83.1425 -1 -9.78501 83.1350 TC 30 1000 -9.74068 83.1182 1 -9.78501 83.1350 TC 27 1000 5 213
1971293S09086 1972 140 SI MM RHODA 1971-10-22 00:00:00 TS -10.0000 83.0000 main 1801 1801 O________OO_O_ jtwc_sh SH021972 -10.0000 83.0000 -1 -10.0000 83.0000 TC 30 1000 -10.0000 83.0000 1 -10.0000 83.0000 TC 30 1000 6 203
1971293S09086 1972 140 SI MM RHODA 1971-10-22 03:00:00 TS -10.3017 82.9004 main 1833 1833 P________PP_P_ SH021972 -10.3350 82.8701 -1 -10.2700 82.9275 TC 32 998 -10.2987 82.9068 1 -10.2700 82.9275 TC 32 998 7 193
1971293S09086 1972 140 SI MM RHODA 1971-10-22 06:00:00 TS -10.6480 82.8506 main 1866 1866 O________OP_O_ jtwc_sh SH021972 -10.7000 82.8000 -1 -10.6000 82.9000 TC 35 996 -10.6399 82.8528 1 -10.6000 82.9000 TC 35 996 7 184
1971293S09086 1972 140 SI MM RHODA 1971-10-22 09:00:00 TS -11.0132 82.8395 main 1909 1909 P________PP_P_ SH021972 -11.0425 82.8050 -1 -10.9850 82.8701 TC 40 994 -11.0112 82.8475 1 -10.9850 82.8701 TC 40 994 8 176
1971293S09086 1972 140 SI MM RHODA 1971-10-22 12:00:00 TS -11.4000 82.9000 main 1955 1955 O________OO_O_ jtwc_sh SH021972 -11.4000 82.9000 -1 -11.4000 82.9000 TC 45 992 -11.4000 82.9000 1 -11.4000 82.9000 TC 45 992 8 165
1971293S09086 1972 140 SI MM RHODA 1971-10-22 15:00:00 TS -11.7998 83.0486 main 2000 2000 P________PP_P_ SH021972 -11.7925 83.0849 -1 -11.8000 83.0200 TC 47 989 -11.8142 83.0332 1 -11.8000 83.0200 TC 50 989 9 157
1971293S09086 1972 140 SI MM RHODA 1971-10-22 18:00:00 TS -12.2075 83.2439 main 2048 2048 O________OP_O_ jtwc_sh SH021972 -12.2000 83.3000 -1 -12.2000 83.2000 TC 50 986 -12.2377 83.2193 1 -12.2000 83.2000 TC 55 986 9 155
1971293S09086 1972 140 SI MM RHODA 1971-10-22 21:00:00 TS -12.6235 83.4361 main 2095 2095 P________PP_P_ SH021972 -12.6150 83.4725 -1 -12.6225 83.4074 TC 55 983 -12.6423 83.4207 1 -12.6225 83.4074 TC 57 983 9 156
1971293S09086 1972 140 SI MM RHODA 1971-10-23 00:00:00 TS -13.0000 83.6000 main 2108 2108 O________OO_O_ jtwc_sh SH021972 -13.0000 83.6000 -1 -13.0000 83.6000 TC 60 980 -13.0000 83.6000 1 -13.0000 83.6000 TC 60 980 7 160
1971293S09086 1972 140 SI MM RHODA 1971-10-23 03:00:00 TS -13.3061 83.6929 main 2119 2119 P________PP_P_ SH021972 -13.3375 83.6576 -1 -13.2800 83.7226 TC 60 980 -13.2955 83.7040 1 -13.2800 83.7226 TC 60 980 6 164
1971293S09086 1972 140 SI MM RHODA 1971-10-23 06:00:00 TS -13.5480 83.7561 main 2124 2124 O________OP_O_ jtwc_sh SH021972 -13.6000 83.7000 -1 -13.5000 83.8000 TC 60 980 -13.5399 83.7803 1 -13.5000 83.8000 TC 60 980 5 162
1971293S09086 1972 140 SI MM RHODA 1971-10-23 09:00:00 TS -13.7459 83.8313 main 2137 2136 P________PP_P_ SH021972 -13.7800 83.8000 -1 -13.7150 83.8575 TC 60 980 -13.7393 83.8414 1 -13.7150 83.8575 TC 60 980 4 159
1971293S09086 1972 140 SI MM RHODA 1971-10-23 12:00:00 TS -13.9000 83.9000 main 2142 2141 O________OO_O_ jtwc_sh SH021972 -13.9000 83.9000 -1 -13.9000 83.9000 TC 60 980 -13.9000 83.9000 1 -13.9000 83.9000 TC 60 980 3 158
1971293S09086 1972 140 SI MM RHODA 1971-10-23 15:00:00 TS -14.0392 83.9545 main 2141 2141 P________PP_P_ SH021972 -14.0075 83.9500 -1 -14.0725 83.9425 TC 60 980 -14.0359 83.9872 1 -14.0725 83.9425 TC 60 980 3 156
1971293S09086 1972 140 SI MM RHODA 1971-10-23 18:00:00 TS -14.1475 84.0145 main 2148 2147 O________OP_O_ jtwc_sh SH021972 -14.1000 84.0000 -1 -14.2000 84.0000 TC 60 980 -14.1375 84.0725 1 -14.2000 84.0000 TC 60 980 2 140
1971293S09086 1972 140 SI MM RHODA 1971-10-23 21:00:00 TS -14.2271 84.1153 main 2147 2146 P________PP_P_ SH021972 -14.2000 84.1075 -1 -14.2575 84.1075 TC 60 980 -14.2203 84.1466 1 -14.2575 84.1075 TC 60 980 2 130
1971293S09086 1972 140 SI MM RHODA 1971-10-24 00:00:00 TS -14.3000 84.2000 main 2146 2146 O________OO_O_ jtwc_sh SH021972 -14.3000 84.2000 -1 -14.3000 84.2000 TC 60 980 -14.3000 84.2000 1 -14.3000 84.2000 TC 60 980 2 151
1971293S09086 1972 140 SI MM RHODA 1971-10-24 03:00:00 TS -14.3970 84.2171 main 2153 2153 P________PP_P_ SH021972 -14.4000 84.2150 -1 -14.3925 84.2150 TC 57 982 -14.4000 84.2257 1 -14.3925 84.2150 TC 57 982 2 172
1971293S09086 1972 140 SI MM RHODA 1971-10-24 06:00:00 TS -14.5000 84.2060 main 2160 2160 O________OP_O_ jtwc_sh SH021972 -14.5000 84.2000 -1 -14.5000 84.2000 TC 55 984 -14.5000 84.2300 1 -14.5000 84.2000 TC 55 984 2 0
1971293S09086 1972 140 SI MM RHODA 1971-10-24 09:00:00 TS -14.6000 84.2039 main 2167 2167 P________PP_P_ SH021972 -14.6000 84.1925 -1 -14.6000 84.2075 TC 52 986 -14.6000 84.2194 1 -14.6000 84.2075 TC 52 986 2 188
1971293S09086 1972 140 SI MM RHODA 1971-10-24 12:00:00 TS -14.7000 84.2000 main 2174 2174 O________OO_O_ jtwc_sh SH021972 -14.7000 84.2000 -1 -14.7000 84.2000 TC 50 988 -14.7000 84.2000 1 -14.7000 84.2000 TC 50 988 2 173
1971293S09086 1972 140 SI MM RHODA 1971-10-24 15:00:00 TS -14.8039 84.2268 main 2182 2182 P________PP_P_ SH021972 -14.8000 84.2650 -1 -14.8000 84.1500 TC 47 990 -14.8194 84.3039 1 -14.8000 84.1500 TC 47 990 2 172
1971293S09086 1972 140 SI MM RHODA 1971-10-24 18:00:00 TS -14.9072 84.2365 main 2189 2181 O________OP_O_ jtwc_sh SH021972 -14.9000 84.3000 -1 -14.9000 84.1000 TC 45 992 -14.9358 84.3823 1 -14.9000 84.1000 TC 45 992 2 166
1971293S09086 1972 140 SI MM RHODA 1971-10-24 21:00:00 TS -15.0035 84.2788 main 2188 2188 P________PP_P_ SH021972 -15.0071 84.3124 -1 -14.9846 84.2122 TC 40 995 -15.0343 84.3446 1 -14.9846 84.2122 TC 40 995 2 215
1971293S09086 1972 140 SI MM RHODA 1971-10-25 00:00:00 TS -15.1000 84.1000 main 2212 2212 O________OO_O_ jtwc_sh SH021972 -15.1000 84.1000 -1 -15.1000 84.1000 TC 35 998 -15.1000 84.1000 1 -15.1000 84.1000 TC 35 998 8 253
1971293S09086 1972 140 SI MM RHODA 1971-10-25 03:00:00 TS -15.2431 83.4779 main 2268 2268 P________PP_P_ SH021972 -15.1801 83.5127 -1 -15.3531 83.4135 TC 35 998 -15.1489 83.5371 1 -15.3531 83.4135 TC 35 998 14 262
1971293S09086 1972 140 SI MM RHODA 1971-10-25 06:00:00 TS -15.3114 82.6337 main 2350 2350 O________OP_O_ jtwc_sh SH021972 -15.2000 82.7000 -1 -15.5000 82.5000 TC 35 998 -15.1571 82.7683 1 -15.5000 82.5000 TC 35 998 16 271
1971293S09086 1972 140 SI MM RHODA 1971-10-25 09:00:00 TS -15.2042 81.8178 main 2367 2341 P________PP_P_ SH021972 -15.1376 81.8574 -1 -15.3172 81.7419 TC 32 998 -15.1114 81.8902 1 -15.3172 81.7419 TC 32 998 16 281
1971293S09086 1972 140 SI MM RHODA 1971-10-25 12:00:00 TS -15.0000 81.0000 main 2341 2319 O________OO_O_ jtwc_sh SH021972 -15.0000 81.0000 -1 -15.0000 81.0000 TC 30 999 -15.0000 81.0000 1 -15.0000 81.0000 TC 30 999 16 285
1971293S09086 1972 140 SI MM RHODA 1971-10-25 15:00:00 TS -14.7953 80.2171 main 2319 2298 P________PP_P_ SH021972 -14.8296 80.2352 -1 -14.7498 80.2502 TC 30 999 -14.8173 80.1748 1 -14.7502 80.1900 TC 30 999 15 287
1971293S09086 1972 140 SI MM RHODA 1971-10-25 18:00:00 TS -14.5555 79.4827 main 2299 2269 O________OP_O_ jtwc_sh SH021972 -14.6000 79.5000 -1 -14.5000 79.5000 TC 30 1000 -14.5773 79.4135 1 -14.5000 79.5000 TC 30 1000 15 290
1971293S09086 1972 140 SI MM RHODA 1971-10-25 21:00:00 TS -14.2860 78.8049 main 2271 2243 P________PP_P_ SH021972 -14.3156 78.7545 -1 -14.2505 78.7497 TC 30 1000 -14.2987 78.6955 1 -14.2498 79.0700 TC 30 1000 14 293
1971293S09086 1972 140 SI MM RHODA 1971-10-26 00:00:00 TS -14.0000 78.1600 main 2245 O________OO_O_ jtwc_sh SH021972 -14.0000 78.0000 -1 -14.0000 78.0000 TC 30 1000 -14.0000 78.0000 6 -14.0000 78.8000 TC 30 1000 14 295

IBTrACS Databaseについて

本データベースは、米国NOAAが公開する1842年以降の世界の熱帯低気圧のベストトラックデータアーカイブInternational Best Track Archive for Climate Stewardship (IBTrACS)を、ウェブで閲覧しやすい形式に変換したものです。

最終更新日:2021-11-26